Time;durP1;ratioP1;P1;durP2;ratioP2;P2;SDS_P1;SDS_P2;PMS_P1;PMS_P2;Temp;Humidity;BMP_temperature;BMP_pressure;BME280_temperature;BME280_humidity;BME280_pressure;Samples;Min_cycle;Max_cycle;Signal;HPM_P1;HPM_P2
2022/11/18 00:00:37;;;;;;;9.23;7.70;;;;;;;-0.77;73.69;98920.65;1739934;82;21463;-73
2022/11/18 00:03:04;;;;;;;12.73;8.88;;;;;;;-0.76;73.90;98921.88;1735161;81;21439;-72
2022/11/18 00:05:31;;;;;;;10.82;8.50;;;;;;;-0.76;74.04;98928.37;1713827;81;21436;-72
2022/11/18 00:07:58;;;;;;;11.68;8.83;;;;;;;-0.73;74.19;98928.19;1723764;81;20968;-71
2022/11/18 00:10:24;;;;;;;9.53;7.95;;;;;;;-0.72;74.27;98934.20;1746852;80;21789;-73
2022/11/18 00:15:38;;;;;;;10.50;8.40;;;;;;;-0.74;74.30;98938.18;1759337;81;21001;-73
2022/11/18 00:18:05;;;;;;;10.63;8.13;;;;;;;-0.80;74.35;98928.61;1728510;81;21023;-72
2022/11/18 00:20:35;;;;;;;10.68;8.18;;;;;;;-0.81;74.49;98929.53;1712345;81;21461;-72
2022/11/18 00:23:01;;;;;;;11.15;8.63;;;;;;;-0.79;74.64;98931.11;1733537;81;21803;-72
2022/11/18 00:25:29;;;;;;;9.73;7.92;;;;;;;-0.78;74.70;98928.89;1734089;81;21352;-74
2022/11/18 00:27:59;;;;;;;10.65;8.18;;;;;;;-0.77;74.83;98928.42;1734486;81;20978;-71
2022/11/18 00:30:26;;;;;;;8.73;7.30;;;;;;;-0.81;74.75;98932.95;1732438;81;21525;-73
2022/11/18 00:32:52;;;;;;;10.00;7.37;;;;;;;-0.84;74.74;98933.14;1726578;81;20957;-73
2022/11/18 00:35:18;;;;;;;9.85;7.10;;;;;;;-0.87;74.75;98944.95;1735570;81;21838;-73
2022/11/18 00:37:45;;;;;;;8.45;7.10;;;;;;;-0.90;74.74;98941.25;1732034;81;20994;-74
2022/11/18 00:40:12;;;;;;;10.50;7.55;;;;;;;-0.91;74.75;98940.41;1717848;81;21115;-75
2022/11/18 00:42:52;;;;;;;9.33;7.37;;;;;;;-0.96;74.70;98951.51;1741125;81;20951;-72
2022/11/18 00:45:20;;;;;;;12.00;7.03;;;;;;;-0.93;74.83;98955.67;1728836;81;21059;-73
2022/11/18 00:47:47;;;;;;;9.90;7.25;;;;;;;-0.95;74.81;98953.17;1733734;81;21946;-72
2022/11/18 00:50:19;;;;;;;9.95;7.05;;;;;;;-0.92;74.85;98957.34;1753623;81;21479;-74
2022/11/18 00:52:46;;;;;;;8.53;6.75;;;;;;;-0.93;74.77;98958.27;1763328;81;21439;-74
2022/11/18 00:55:13;;;;;;;9.80;7.17;;;;;;;-0.97;74.76;98964.52;1739447;81;21569;-74
2022/11/18 00:57:40;;;;;;;9.45;7.25;;;;;;;-0.96;74.70;98974.00;1730891;81;21366;-73
2022/11/18 01:00:09;;;;;;;8.38;6.92;;;;;;;-0.98;74.74;98971.92;1735851;81;22433;-72
2022/11/18 01:02:35;;;;;;;11.12;7.83;;;;;;;-0.96;74.82;98974.00;1737830;81;21037;-73
2022/11/18 01:05:04;;;;;;;8.95;6.90;;;;;;;-0.98;74.74;98975.81;1738363;81;21040;-73
2022/11/18 01:07:31;;;;;;;10.25;7.65;;;;;;;-0.99;74.82;98982.75;1734427;81;21329;-74
2022/11/18 01:09:58;;;;;;;10.05;7.50;;;;;;;-1.02;74.84;98982.09;1736832;82;21000;-73
2022/11/18 01:15:10;;;;;;;9.03;6.87;;;;;;;-1.00;74.87;98994.50;1744952;80;21498;-74
2022/11/18 01:17:38;;;;;;;10.10;8.15;;;;;;;-1.00;74.97;98991.45;1761224;80;21056;-73
2022/11/18 01:20:08;;;;;;;8.13;6.87;;;;;;;-0.96;75.03;99003.80;1747256;81;21012;-73
2022/11/18 01:22:36;;;;;;;9.20;7.05;;;;;;;-0.95;75.10;98998.99;1743834;80;21004;-73
2022/11/18 01:25:05;;;;;;;10.18;7.33;;;;;;;-0.97;75.05;98998.22;1733162;82;22230;-73
2022/11/18 01:27:33;;;;;;;10.18;7.67;;;;;;;-0.98;75.10;98993.95;1746207;80;20977;-73
2022/11/18 01:30:00;;;;;;;10.15;7.65;;;;;;;-0.98;75.07;98987.02;1746313;82;20964;-73
2022/11/18 01:32:28;;;;;;;9.20;7.33;;;;;;;-1.01;74.99;98982.01;1746830;80;21012;-73
2022/11/18 01:34:55;;;;;;;9.85;7.65;;;;;;;-1.06;74.92;98990.51;1749208;81;20988;-74
2022/11/18 01:37:22;;;;;;;11.73;8.58;;;;;;;-1.10;74.97;98987.69;1746309;80;21906;-73
2022/11/18 01:39:49;;;;;;;10.50;7.75;;;;;;;-1.09;75.11;98985.93;1746438;82;21052;-74
2022/11/18 01:42:16;;;;;;;9.90;7.10;;;;;;;-1.07;75.18;98990.56;1746022;81;21012;-74
2022/11/18 01:45:13;;;;;;;10.70;7.55;;;;;;;-1.04;75.25;98984.77;1745431;82;21520;-75
2022/11/18 01:47:46;;;;;;;9.73;7.55;;;;;;;-1.04;75.20;98982.19;1729291;80;21076;-73
2022/11/18 01:50:15;;;;;;;10.82;7.58;;;;;;;-1.05;75.27;98993.94;1737978;80;22623;-74
2022/11/18 01:52:42;;;;;;;10.85;8.30;;;;;;;-1.08;75.30;98993.61;1746353;80;20940;-72
2022/11/18 01:55:22;;;;;;;9.83;8.13;;;;;;;-1.09;75.35;99007.95;1748112;80;20964;-73
2022/11/18 01:57:49;;;;;;;9.50;7.47;;;;;;;-1.11;75.37;99004.61;1745769;80;21461;-72
2022/11/18 02:00:20;;;;;;;9.63;7.47;;;;;;;-1.10;75.45;99008.88;1747765;80;21070;-72
2022/11/18 02:02:48;;;;;;;9.90;7.95;;;;;;;-1.14;75.35;99014.69;1744106;80;22458;-72
2022/11/18 02:05:15;;;;;;;9.48;7.83;;;;;;;-1.20;75.34;99021.02;1718210;80;21707;-73
2022/11/18 02:07:44;;;;;;;10.68;7.85;;;;;;;-1.21;75.46;99023.23;1746302;80;21026;-73
2022/11/18 02:10:21;;;;;;;10.82;7.55;;;;;;;-1.22;75.43;99029.34;1725604;80;21515;-72
2022/11/18 02:12:49;;;;;;;9.95;7.97;;;;;;;-1.22;75.46;99038.87;1733837;81;21499;-73
2022/11/18 02:15:20;;;;;;;9.85;7.85;;;;;;;-1.20;75.49;99046.09;1733083;81;22619;-73
2022/11/18 02:18:05;;;;;;;9.45;7.75;;;;;;;-1.17;75.58;99046.75;1729341;81;21036;-75
2022/11/18 02:20:36;;;;;;;9.68;7.90;;;;;;;-1.11;75.61;99051.25;1725321;80;21054;-73
2022/11/18 02:23:43;;;;;;;9.40;7.22;;;;;;;-1.06;75.66;99053.12;1753210;80;20957;-73
2022/11/18 02:27:03;;;;;;;9.45;6.92;;;;;;;-1.07;75.64;99050.16;1735402;81;20946;-71
2022/11/18 02:29:37;;;;;;;9.33;6.87;;;;;;;-1.05;75.68;99055.66;1746409;81;21819;-73
2022/11/18 02:32:16;;;;;;;9.50;6.78;;;;;;;-1.07;75.50;99056.17;1732572;80;20943;-73
2022/11/18 02:35:09;;;;;;;10.68;7.12;;;;;;;-1.12;75.44;99058.66;1722803;81;20961;-71
2022/11/18 02:37:50;;;;;;;10.60;7.53;;;;;;;-1.18;75.38;99061.09;1723509;81;21056;-74
2022/11/18 02:40:28;;;;;;;7.87;6.37;;;;;;;-1.19;75.37;99062.84;1740608;81;20977;-72
2022/11/18 02:43:13;;;;;;;8.58;6.85;;;;;;;-1.21;75.30;99080.23;1735977;81;22612;-74
2022/11/18 02:45:45;;;;;;;9.60;7.58;;;;;;;-1.23;75.17;99079.48;1730397;81;21436;-73
2022/11/18 02:48:11;;;;;;;9.80;7.00;;;;;;;-1.23;75.10;99082.53;1725381;81;20966;-71
2022/11/18 02:50:38;;;;;;;8.58;7.17;;;;;;;-1.23;75.13;99077.35;1760401;81;20997;-72
2022/11/18 02:53:05;;;;;;;9.38;7.65;;;;;;;-1.22;75.07;99083.74;1750489;80;21093;-71
2022/11/18 02:55:34;;;;;;;10.15;6.95;;;;;;;-1.20;75.10;99080.61;1729215;80;22620;-72
2022/11/18 02:58:01;;;;;;;8.73;7.12;;;;;;;-1.20;74.94;99075.42;1732537;80;20978;-72
2022/11/18 03:00:29;;;;;;;8.90;7.33;;;;;;;-1.22;74.88;99072.55;1710251;82;21049;-72
2022/11/18 03:02:55;;;;;;;8.95;7.05;;;;;;;-1.22;74.86;99074.67;1705665;81;21496;-72
2022/11/18 03:05:29;;;;;;;9.25;7.62;;;;;;;-1.21;74.85;99079.39;1719889;82;20994;-72
2022/11/18 03:08:05;;;;;;;8.58;7.03;;;;;;;-1.20;74.83;99077.18;1727523;81;21842;-73
2022/11/18 03:10:37;;;;;;;9.40;7.72;;;;;;;-1.18;74.87;99082.66;1736132;81;21512;-72
2022/11/18 03:13:27;;;;;;;10.45;7.67;;;;;;;-1.14;74.85;99088.99;1747552;80;21273;-74
2022/11/18 03:15:59;;;;;;;9.83;8.25;;;;;;;-1.14;74.74;99098.06;1735912;81;21031;-73
2022/11/18 03:18:33;;;;;;;11.15;8.30;;;;;;;-1.22;74.49;99100.58;1732734;80;21056;-73
2022/11/18 03:21:13;;;;;;;9.38;7.58;;;;;;;-1.24;74.61;99089.93;1741624;81;22496;-73
2022/11/18 03:23:43;;;;;;;10.05;7.85;;;;;;;-1.21;74.62;99093.64;1753065;81;21040;-73
2022/11/18 03:26:26;;;;;;;14.28;10.63;;;;;;;-1.22;74.55;99103.63;1741017;80;20909;-73
2022/11/18 03:29:22;;;;;;;12.80;9.15;;;;;;;-1.23;74.55;99096.32;1758367;80;20965;-73
2022/11/18 03:32:01;;;;;;;19.17;12.80;;;;;;;-1.21;74.59;99102.72;1735914;81;21040;-72
2022/11/18 03:34:38;;;;;;;22.02;14.80;;;;;;;-1.17;74.68;99111.53;1746143;80;22405;-73
2022/11/18 03:37:07;;;;;;;12.03;8.60;;;;;;;-1.15;74.68;99116.66;1738807;80;21468;-73
2022/11/18 03:39:38;;;;;;;10.10;7.97;;;;;;;-1.16;74.59;99118.41;1754809;80;20965;-72
2022/11/18 03:42:15;;;;;;;9.38;7.58;;;;;;;-1.15;74.60;99112.77;1736079;81;21044;-72
2022/11/18 03:44:49;;;;;;;10.05;7.62;;;;;;;-1.18;74.53;99108.56;1723966;82;20954;-72
2022/11/18 03:47:21;;;;;;;8.68;7.00;;;;;;;-1.19;74.32;99115.13;1736629;81;21833;-72
2022/11/18 03:49:52;;;;;;;10.60;7.83;;;;;;;-1.23;74.28;99123.52;1735226;81;21546;-72
2022/11/18 03:52:21;;;;;;;9.08;7.22;;;;;;;-1.28;74.20;99124.20;1735140;81;21000;-72
2022/11/18 03:54:50;;;;;;;10.82;7.33;;;;;;;-1.25;74.28;99125.81;1734441;82;20965;-73
2022/11/18 03:57:46;;;;;;;8.78;7.45;;;;;;;-1.22;74.32;99125.66;1731795;81;21017;-73
2022/11/18 04:00:15;;;;;;;9.08;7.95;;;;;;;-1.25;74.12;99127.95;1693416;82;21934;-72
2022/11/18 04:02:41;;;;;;;14.05;10.03;;;;;;;-1.31;74.09;99130.84;1749494;81;21348;-72
2022/11/18 04:05:11;;;;;;;12.40;9.33;;;;;;;-1.32;74.11;99135.64;1735089;81;21545;-73
2022/11/18 04:08:01;;;;;;;10.50;8.15;;;;;;;-1.31;74.21;99145.09;1762310;81;20973;-73
2022/11/18 04:10:42;;;;;;;10.58;8.53;;;;;;;-1.27;74.28;99147.89;1718165;82;21005;-73
2022/11/18 04:13:17;;;;;;;11.70;8.43;;;;;;;-1.28;74.18;99143.62;1742780;81;22640;-73
2022/11/18 04:15:45;;;;;;;10.15;8.28;;;;;;;-1.25;74.23;99138.31;1733686;81;21068;-73
2022/11/18 04:18:11;;;;;;;11.40;8.78;;;;;;;-1.23;74.24;99139.06;1755870;81;20958;-74
2022/11/18 04:20:38;;;;;;;10.08;8.08;;;;;;;-1.22;74.21;99142.49;1740836;81;21000;-73
2022/11/18 04:23:06;;;;;;;11.65;8.83;;;;;;;-1.22;74.19;99151.10;1745230;81;21008;-73
2022/11/18 04:25:35;;;;;;;12.13;8.50;;;;;;;-1.23;74.13;99152.48;1732354;81;21970;-74
2022/11/18 04:28:01;;;;;;;14.33;9.58;;;;;;;-1.23;74.00;99149.42;1733290;81;21416;-73
2022/11/18 04:30:28;;;;;;;12.03;8.80;;;;;;;-1.22;74.03;99151.56;1741535;81;21399;-74
2022/11/18 04:32:57;;;;;;;12.78;10.28;;;;;;;-1.19;74.05;99161.30;1763234;81;21021;-75
2022/11/18 04:35:24;;;;;;;11.50;8.60;;;;;;;-1.16;74.05;99159.00;1735576;81;21483;-74
2022/11/18 04:37:50;;;;;;;10.68;7.78;;;;;;;-1.13;74.07;99148.50;1734228;81;21875;-73
2022/11/18 04:40:17;;;;;;;10.00;8.03;;;;;;;-1.16;73.94;99141.73;1736536;81;21005;-73
2022/11/18 04:42:43;;;;;;;12.23;8.50;;;;;;;-1.18;73.90;99144.83;1733648;81;21014;-73
2022/11/18 04:45:10;;;;;;;10.68;8.23;;;;;;;-1.18;73.92;99152.61;1735363;81;21590;-74
2022/11/18 04:47:37;;;;;;;10.43;8.03;;;;;;;-1.21;73.77;99161.84;1727944;81;21492;-73
2022/11/18 04:50:06;;;;;;;11.22;8.15;;;;;;;-1.24;73.66;99166.34;1749483;81;21080;-73
2022/11/18 04:52:33;;;;;;;11.68;9.28;;;;;;;-1.25;73.65;99173.28;1736159;81;21008;-73
2022/11/18 04:54:59;;;;;;;11.73;8.70;;;;;;;-1.23;73.67;99185.70;1733105;82;21130;-73
2022/11/18 04:57:26;;;;;;;14.15;10.75;;;;;;;-1.20;73.65;99182.10;1735945;81;20996;-73
2022/11/18 04:59:53;;;;;;;11.90;9.28;;;;;;;-1.20;73.59;99184.70;1735494;81;21013;-73
2022/11/18 05:02:19;;;;;;;12.13;9.00;;;;;;;-1.18;73.58;99182.40;1760625;81;22284;-73
2022/11/18 05:04:46;;;;;;;11.50;8.88;;;;;;;-1.16;73.58;99194.84;1739801;81;20968;-73
2022/11/18 05:07:14;;;;;;;11.65;9.40;;;;;;;-1.14;73.52;99209.02;1742658;81;21085;-73
2022/11/18 05:09:41;;;;;;;13.88;9.08;;;;;;;-1.13;73.53;99209.39;1740096;81;20977;-73
2022/11/18 05:14:58;;;;;;;9.68;8.15;;;;;;;-1.10;73.61;99206.64;1727483;81;22581;-72
2022/11/18 05:17:24;;;;;;;8.63;7.60;;;;;;;-1.09;73.65;99208.31;1729362;81;21570;-73
2022/11/18 05:19:52;;;;;;;11.53;7.75;;;;;;;-1.07;73.65;99212.11;1729805;81;21052;-73
2022/11/18 05:22:19;;;;;;;9.40;7.55;;;;;;;-1.08;73.66;99210.44;1725370;81;20954;-73
2022/11/18 05:24:46;;;;;;;8.65;7.53;;;;;;;-1.06;73.71;99209.90;1726430;81;21112;-73
2022/11/18 05:27:13;;;;;;;9.95;7.70;;;;;;;-1.09;73.62;99208.31;1729618;81;21944;-73
2022/11/18 05:29:40;;;;;;;8.48;7.12;;;;;;;-1.11;73.54;99218.38;1742890;81;20985;-74
2022/11/18 05:32:06;;;;;;;11.95;8.45;;;;;;;-1.12;73.53;99216.70;1670721;84;21049;-73
2022/11/18 05:34:33;;;;;;;11.88;8.45;;;;;;;-1.13;73.57;99214.58;1679993;83;21045;-73
2022/11/18 05:37:00;;;;;;;11.00;8.58;;;;;;;-1.14;73.41;99219.84;1678108;84;21420;-75
2022/11/18 05:39:26;;;;;;;13.48;9.55;;;;;;;-1.17;73.39;99222.94;1676572;84;21887;-74
2022/11/18 05:44:38;;;;;;;14.87;10.75;;;;;;;-1.19;73.29;99237.73;1686489;83;21015;-73
2022/11/18 05:47:05;;;;;;;14.00;10.30;;;;;;;-1.16;73.32;99236.30;1708026;83;21037;-74
2022/11/18 05:49:33;;;;;;;13.75;10.90;;;;;;;-1.13;73.29;99235.30;1689210;84;20949;-74
2022/11/18 05:52:00;;;;;;;11.97;9.45;;;;;;;-1.11;73.28;99239.11;1676599;84;21842;-74
2022/11/18 05:54:27;;;;;;;13.35;10.30;;;;;;;-1.11;73.24;99244.29;1670500;84;21073;-75
2022/11/18 05:56:53;;;;;;;12.70;9.65;;;;;;;-1.12;73.21;99249.09;1695226;84;21507;-74
2022/11/18 05:59:21;;;;;;;12.88;9.08;;;;;;;-1.10;73.23;99245.96;1677402;84;20969;-72
2022/11/18 06:01:58;;;;;;;24.72;19.12;;;;;;;-1.06;73.25;99245.75;1681787;84;21021;-73
2022/11/18 06:04:34;;;;;;;19.62;14.75;;;;;;;-1.03;73.21;99259.00;1681914;84;22478;-73
2022/11/18 06:07:23;;;;;;;24.65;19.23;;;;;;;-1.03;73.20;99255.95;1676208;84;20997;-73
2022/11/18 06:10:00;;;;;;;47.85;31.68;;;;;;;-1.04;73.18;99247.80;1721942;81;21515;-73
2022/11/18 06:12:33;;;;;;;36.50;24.20;;;;;;;-1.00;73.17;99250.61;1723874;81;21028;-73
2022/11/18 06:15:20;;;;;;;19.82;13.48;;;;;;;-0.96;73.22;99249.55;1737887;80;20944;-73
2022/11/18 06:17:56;;;;;;;17.15;11.10;;;;;;;-0.92;73.29;99243.29;1744665;81;21838;-72
2022/11/18 06:20:24;;;;;;;14.95;10.08;;;;;;;-0.87;73.33;99249.52;1727237;83;20949;-73
2022/11/18 06:22:53;;;;;;;13.18;9.50;;;;;;;-0.82;73.43;99264.40;1720564;81;20953;-72
2022/11/18 06:25:20;;;;;;;13.88;10.50;;;;;;;-0.76;73.42;99273.64;1726232;81;20974;-73
2022/11/18 06:27:47;;;;;;;14.45;11.22;;;;;;;-0.71;73.43;99275.52;1717349;81;21527;-73
2022/11/18 06:30:14;;;;;;;13.78;11.43;;;;;;;-0.64;73.43;99279.03;1714055;81;21877;-73
2022/11/18 06:32:41;;;;;;;26.80;15.95;;;;;;;-0.59;73.31;99277.48;1721575;81;20942;-73
2022/11/18 06:35:08;;;;;;;14.40;10.65;;;;;;;-0.56;73.25;99284.29;1697039;83;21084;-74
2022/11/18 06:37:35;;;;;;;11.30;9.05;;;;;;;-0.53;73.24;99289.31;1694974;83;21059;-75
2022/11/18 06:40:03;;;;;;;10.23;8.13;;;;;;;-0.52;73.17;99287.09;1690798;83;20986;-73
2022/11/18 06:45:14;;;;;;;15.98;12.03;;;;;;;-0.45;73.02;99306.16;1700474;81;21086;-73
2022/11/18 06:47:41;;;;;;;12.23;9.25;;;;;;;-0.42;72.86;99307.75;1728505;81;20998;-74
2022/11/18 06:50:13;;;;;;;13.32;9.93;;;;;;;-0.41;72.74;99310.72;1658774;84;21001;-72
2022/11/18 06:53:01;;;;;;;10.40;8.58;;;;;;;-0.44;72.59;99318.20;1651030;84;21063;-75
2022/11/18 06:55:28;;;;;;;13.95;10.65;;;;;;;-0.46;72.48;99312.73;1723327;81;21849;-74
2022/11/18 06:57:57;;;;;;;15.88;12.05;;;;;;;-0.49;72.33;99308.51;1725602;81;21040;-72
2022/11/18 07:00:24;;;;;;;14.35;11.48;;;;;;;-0.51;72.27;99313.41;1720784;81;21057;-72
2022/11/18 07:02:50;;;;;;;13.70;10.78;;;;;;;-0.49;72.37;99316.75;1723876;81;21492;-73
2022/11/18 07:05:17;;;;;;;16.95;10.90;;;;;;;-0.48;72.41;99315.83;1733911;81;20981;-73
2022/11/18 07:07:45;;;;;;;21.30;16.95;;;;;;;-0.45;72.42;99319.59;1726981;83;21234;-73
2022/11/18 07:10:13;;;;;;;14.33;10.20;;;;;;;-0.47;72.29;99315.78;1724336;81;20948;-73
2022/11/18 07:12:40;;;;;;;13.88;10.25;;;;;;;-0.46;72.27;99315.32;1733264;81;21368;-74
2022/11/18 07:15:08;;;;;;;13.88;10.48;;;;;;;-0.45;72.09;99314.40;1729392;81;21142;-73
2022/11/18 07:17:35;;;;;;;14.93;9.20;;;;;;;-0.43;72.14;99309.97;1731954;81;21037;-72
2022/11/18 07:20:05;;;;;;;14.60;9.08;;;;;;;-0.40;72.03;99308.50;1738335;81;21800;-73
2022/11/18 07:22:32;;;;;;;11.15;8.45;;;;;;;-0.36;72.00;99313.92;1739571;81;20997;-73
2022/11/18 07:24:58;;;;;;;10.40;8.13;;;;;;;-0.33;71.97;99318.48;1730508;81;21041;-73
2022/11/18 07:27:26;;;;;;;10.35;8.10;;;;;;;-0.30;71.94;99320.91;1723141;82;21038;-73
2022/11/18 07:29:52;;;;;;;16.25;9.88;;;;;;;-0.28;71.84;99321.32;1733473;81;21016;-74
2022/11/18 07:32:19;;;;;;;13.72;8.38;;;;;;;-0.24;71.96;99322.83;1739770;81;21830;-74
2022/11/18 07:34:46;;;;;;;10.43;8.13;;;;;;;-0.21;71.96;99329.98;1740483;81;21000;-73
2022/11/18 07:37:13;;;;;;;11.38;8.43;;;;;;;-0.18;71.92;99327.25;1740221;81;21059;-72
2022/11/18 07:39:40;;;;;;;12.95;9.48;;;;;;;-0.14;71.70;99335.70;1736225;81;21514;-72
2022/11/18 07:42:08;;;;;;;13.60;10.53;;;;;;;-0.12;71.54;99337.75;1735741;81;21024;-73
2022/11/18 07:44:35;;;;;;;54.05;12.28;;;;;;;-0.07;71.58;99342.26;1741549;81;21939;-73
2022/11/18 07:47:03;;;;;;;12.60;9.38;;;;;;;-0.02;71.70;99346.73;1689586;83;21390;-74
2022/11/18 07:49:31;;;;;;;10.78;8.70;;;;;;;0.03;71.71;99346.05;1697890;84;21045;-72
2022/11/18 07:52:01;;;;;;;11.12;8.93;;;;;;;0.07;71.53;99353.20;1678774;83;21156;-73
2022/11/18 07:54:27;;;;;;;13.05;9.38;;;;;;;0.12;71.32;99349.92;1688580;83;21078;-72
2022/11/18 07:56:57;;;;;;;12.43;9.13;;;;;;;0.07;71.02;99348.84;1693061;83;20997;-73
2022/11/18 07:59:24;;;;;;;13.90;8.98;;;;;;;0.05;70.88;99357.64;1676351;84;20970;-74
2022/11/18 08:01:51;;;;;;;10.93;8.50;;;;;;;0.03;70.73;99362.92;1674763;83;21036;-73
2022/11/18 08:04:17;;;;;;;10.45;8.50;;;;;;;0.00;70.60;99366.98;1677637;83;21017;-72
2022/11/18 08:06:44;;;;;;;18.25;9.73;;;;;;;-0.04;70.45;99373.23;1706240;82;21052;-73
2022/11/18 08:09:13;;;;;;;12.95;9.65;;;;;;;-0.06;70.41;99381.11;1711533;82;21852;-73
2022/11/18 08:11:40;;;;;;;11.43;9.55;;;;;;;-0.03;70.56;99384.83;1706363;84;20958;-72
2022/11/18 08:14:09;;;;;;;24.80;10.15;;;;;;;-0.02;70.39;99386.50;1770268;80;21467;-74
2022/11/18 08:19:35;;;;;;;14.43;10.72;;;;;;;-0.03;70.40;99390.02;1737249;80;21112;-74
2022/11/18 08:22:03;;;;;;;15.23;10.40;;;;;;;0.01;70.37;99390.72;1752853;80;22695;-73
2022/11/18 08:24:31;;;;;;;14.18;9.60;;;;;;;0.04;70.34;99391.02;1751791;81;21062;-73
2022/11/18 08:26:59;;;;;;;14.23;9.33;;;;;;;0.11;70.30;99400.17;1738891;82;21067;-73
2022/11/18 08:29:27;;;;;;;13.75;10.65;;;;;;;0.11;70.07;99402.31;1730666;81;20993;-73
2022/11/18 08:31:53;;;;;;;15.45;10.65;;;;;;;0.11;70.05;99408.80;1735801;81;21060;-74
2022/11/18 08:34:20;;;;;;;16.93;11.22;;;;;;;0.14;70.01;99417.72;1735445;82;21715;-74
2022/11/18 08:36:49;;;;;;;14.20;10.23;;;;;;;0.19;70.11;99420.92;1735504;82;21053;-73
2022/11/18 08:39:15;;;;;;;11.80;9.20;;;;;;;0.26;70.15;99418.37;1711948;81;21048;-74
2022/11/18 08:41:45;;;;;;;18.48;9.80;;;;;;;0.33;70.13;99420.19;1756541;81;20977;-75
2022/11/18 08:44:15;;;;;;;9.63;8.30;;;;;;;0.37;70.01;99422.16;1740061;81;21317;-74
2022/11/18 08:46:45;;;;;;;10.98;8.68;;;;;;;0.39;69.87;99425.54;1734369;81;21803;-74
2022/11/18 08:49:12;;;;;;;13.25;8.93;;;;;;;0.36;69.59;99420.48;1724534;82;21078;-77
2022/11/18 08:51:38;;;;;;;13.08;8.90;;;;;;;0.37;69.37;99426.05;1729969;80;21052;-76
2022/11/18 08:54:05;;;;;;;16.32;9.95;;;;;;;0.39;69.44;99425.08;1735212;81;21054;-77
2022/11/18 08:56:31;;;;;;;11.83;9.13;;;;;;;0.42;69.34;99428.80;1737429;80;20942;-77
2022/11/18 08:58:57;;;;;;;15.48;9.80;;;;;;;0.47;69.44;99430.67;1738976;81;21963;-76
2022/11/18 09:01:24;;;;;;;13.20;8.93;;;;;;;0.52;69.36;99432.59;1738788;81;21464;-77
2022/11/18 09:03:50;;;;;;;11.85;8.98;;;;;;;0.58;69.23;99439.23;1734655;82;22138;-75
2022/11/18 09:06:19;;;;;;;9.53;8.10;;;;;;;0.55;68.93;99441.97;1736637;81;21533;-74
2022/11/18 09:08:46;;;;;;;10.20;8.68;;;;;;;0.48;68.67;99435.41;1717302;83;21082;-73
2022/11/18 09:11:17;;;;;;;12.50;9.18;;;;;;;0.43;68.52;99439.56;1735235;81;21928;-77
2022/11/18 09:13:45;;;;;;;16.48;8.70;;;;;;;0.44;68.40;99445.59;1702377;82;21107;-77
2022/11/18 09:16:11;;;;;;;11.20;8.60;;;;;;;0.42;68.36;99442.25;1703396;81;21511;-77
2022/11/18 09:18:39;;;;;;;9.88;8.70;;;;;;;0.41;68.21;99449.20;1680353;83;21091;-76
2022/11/18 09:21:07;;;;;;;22.42;10.63;;;;;;;0.39;68.12;99448.91;1671380;84;21108;-78
2022/11/18 09:23:35;;;;;;;325.13;200.95;;;;;;;0.41;68.14;99442.71;1727850;81;21940;-75
2022/11/18 09:26:10;;;;;;;79.05;44.75;;;;;;;0.49;68.45;99438.41;1724832;81;21470;-77
2022/11/18 09:28:37;;;;;;;21.68;14.00;;;;;;;0.59;68.68;99439.61;1695354;82;21094;-73
2022/11/18 09:31:09;;;;;;;26.07;13.40;;;;;;;0.67;68.63;99437.87;1699951;82;21059;-71
2022/11/18 09:33:37;;;;;;;15.50;10.88;;;;;;;0.77;68.37;99442.95;1699891;82;21001;-72
2022/11/18 09:36:05;;;;;;;12.68;9.20;;;;;;;0.77;68.37;99442.95;1707852;82;22533;-73
2022/11/18 09:38:32;;;;;;;10.58;8.48;;;;;;;0.81;68.10;99445.31;1690948;82;21531;-71
2022/11/18 09:41:45;;;;;;;14.03;10.45;;;;;;;0.85;67.80;99449.41;1700667;82;21063;-72
2022/11/18 09:44:50;;;;;;;16.17;12.60;;;;;;;0.83;67.49;99449.96;1703703;82;21083;-74
2022/11/18 09:47:34;;;;;;;13.85;9.23;;;;;;;0.81;67.34;99454.88;1700478;82;21013;-76
2022/11/18 09:50:11;;;;;;;11.55;9.08;;;;;;;0.80;67.09;99464.44;1677293;84;22919;-75
2022/11/18 09:52:47;;;;;;;17.75;11.40;;;;;;;0.78;66.57;99464.15;1675136;83;21531;-73
2022/11/18 09:55:16;;;;;;;13.32;10.68;;;;;;;0.75;66.36;99468.19;1678943;84;21044;-74
2022/11/18 09:57:51;;;;;;;12.20;10.05;;;;;;;0.73;66.30;99473.94;1693996;83;21079;-75
2022/11/18 10:00:27;;;;;;;12.15;8.88;;;;;;;0.68;66.36;99470.30;1693893;82;21040;-73
2022/11/18 10:03:10;;;;;;;12.90;10.00;;;;;;;0.64;66.32;99475.72;1708984;82;21963;-74
2022/11/18 10:05:55;;;;;;;18.50;13.58;;;;;;;0.61;66.27;99470.23;1661983;84;21111;-73
2022/11/18 10:09:09;;;;;;;16.07;12.33;;;;;;;0.59;66.26;99472.55;1695744;84;21083;-74
2022/11/18 10:11:47;;;;;;;18.32;13.45;;;;;;;0.59;66.33;99471.25;1667572;85;21031;-72
2022/11/18 10:14:38;;;;;;;14.63;10.63;;;;;;;0.59;66.56;99468.19;1693599;82;21019;-71
2022/11/18 10:17:45;;;;;;;18.15;12.37;;;;;;;0.54;66.59;99466.28;1738435;82;21939;-77
2022/11/18 10:20:17;;;;;;;21.70;16.87;;;;;;;0.47;66.65;99462.31;1716215;82;21457;-74
2022/11/18 10:23:06;;;;;;;20.77;17.17;;;;;;;0.40;66.80;99463.12;1723412;82;21072;-75
2022/11/18 10:25:32;;;;;;;13.68;10.75;;;;;;;0.37;66.95;99463.25;1705240;82;21531;-73
2022/11/18 10:28:17;;;;;;;13.22;10.58;;;;;;;0.36;67.04;99463.34;1703414;82;21111;-73
2022/11/18 10:30:44;;;;;;;13.98;11.18;;;;;;;0.36;67.18;99465.94;1704346;82;22183;-73
2022/11/18 10:33:25;;;;;;;12.30;9.98;;;;;;;0.35;67.21;99456.01;1710353;82;21040;-74
2022/11/18 10:36:20;;;;;;;14.53;11.05;;;;;;;0.38;67.35;99459.73;1705299;84;21016;-73
2022/11/18 10:38:47;;;;;;;15.68;11.25;;;;;;;0.40;67.37;99461.81;1720552;82;21348;-74
2022/11/18 10:41:18;;;;;;;15.05;11.22;;;;;;;0.41;67.34;99467.39;1684614;82;21008;-74
2022/11/18 10:43:54;;;;;;;16.20;13.00;;;;;;;0.41;67.39;99463.95;1704744;83;21846;-74
2022/11/18 10:46:32;;;;;;;17.48;12.65;;;;;;;0.43;67.58;99465.55;1702099;84;21068;-74
2022/11/18 10:49:15;;;;;;;18.50;13.95;;;;;;;0.49;67.64;99467.83;1707515;82;21616;-72
2022/11/18 10:52:04;;;;;;;24.47;17.30;;;;;;;0.54;67.63;99469.71;1707500;82;21051;-72
2022/11/18 10:54:30;;;;;;;29.48;18.40;;;;;;;0.60;67.63;99474.22;1707674;82;21457;-71
2022/11/18 10:57:12;;;;;;;33.35;21.17;;;;;;;0.65;67.63;99465.24;1706252;83;22387;-71
2022/11/18 10:59:56;;;;;;;36.20;22.80;;;;;;;0.72;67.62;99460.56;1719641;82;21063;-72
2022/11/18 11:02:29;;;;;;;30.32;20.00;;;;;;;0.81;67.63;99450.98;1667637;84;22257;-72
2022/11/18 11:04:57;;;;;;;111.32;72.37;;;;;;;0.89;67.64;99470.06;1683207;84;21075;-74
2022/11/18 11:07:30;;;;;;;119.72;69.67;;;;;;;0.95;67.52;99474.45;1688690;83;21047;-73
2022/11/18 11:10:12;;;;;;;108.57;70.87;;;;;;;0.96;67.31;99476.13;1661671;85;22666;-73
2022/11/18 11:12:50;;;;;;;66.70;47.25;;;;;;;0.94;67.20;99474.08;1654372;85;21085;-73
2022/11/18 11:15:37;;;;;;;60.65;35.75;;;;;;;0.94;67.11;99482.34;1649432;87;21069;-72
2022/11/18 11:20:52;;;;;;;62.27;39.70;;;;;;;0.97;67.02;99492.13;1686168;84;21056;-71
2022/11/18 11:23:19;;;;;;;54.42;37.58;;;;;;;0.97;66.96;99498.63;1701531;84;21851;-71
2022/11/18 11:26:11;;;;;;;37.70;27.85;;;;;;;0.96;66.87;99503.42;1709431;83;21267;-72
2022/11/18 11:29:15;;;;;;;28.52;22.13;;;;;;;0.95;66.77;99509.55;1700875;82;21046;-72
2022/11/18 11:32:19;;;;;;;;;;;;;;;0.95;66.70;99507.41;1698128;83;21057;-71
2022/11/18 11:35:24;;;;;;;18.95;13.62;;;;;;;0.93;66.44;99502.77;1683834;84;20174;-72
2022/11/18 11:38:27;;;;;;;34.85;13.93;;;;;;;0.89;66.26;99500.80;1698660;82;22610;-71
2022/11/18 11:41:24;;;;;;;21.50;13.95;;;;;;;0.85;66.13;99494.91;1659702;84;21154;-76
2022/11/18 11:44:17;;;;;;;15.88;11.10;;;;;;;0.88;66.19;99505.63;1695451;83;21087;-74
2022/11/18 11:50:04;;;;;;;19.75;13.03;;;;;;;0.82;65.94;99512.44;1703706;82;21064;-72
2022/11/18 11:53:01;;;;;;;22.98;15.90;;;;;;;0.83;65.99;99518.02;1699544;83;21809;-70
2022/11/18 11:55:54;;;;;;;24.98;18.67;;;;;;;0.83;66.05;99508.91;1692482;84;20969;-71
2022/11/18 11:58:50;;;;;;;15.08;11.83;;;;;;;0.83;66.05;99505.85;1695838;82;20945;-74
2022/11/18 12:01:28;;;;;;;16.75;12.30;;;;;;;0.85;66.11;99509.66;1694817;82;21063;-74
2022/11/18 12:04:03;;;;;;;27.93;20.20;;;;;;;0.85;65.97;99512.27;1711063;83;21393;-74
2022/11/18 12:06:30;;;;;;;18.65;12.60;;;;;;;0.82;65.92;99512.44;1690472;82;22194;-72
2022/11/18 12:09:22;;;;;;;15.75;11.60;;;;;;;0.80;65.95;99514.28;1690701;83;20917;-72
2022/11/18 12:12:33;;;;;;;14.93;10.45;;;;;;;0.78;66.01;99516.97;1700676;82;21486;-72
2022/11/18 12:14:45;;;;;;;12.40;9.55;;;;;;;0.78;66.11;99501.38;1724124;80;21044;-73